Time;durP1;ratioP1;P1;durP2;ratioP2;P2;SDS_P1;SDS_P2;PMS_P1;PMS_P2;Temp;Humidity;BMP_temperature;BMP_pressure;BME280_temperature;BME280_humidity;BME280_pressure;Samples;Min_cycle;Max_cycle;Signal;HPM_P1;HPM_P2
2022/05/25 00:00:33;;;;;;;1.73;0.38;;;;;;;13.39;100.00;98457.16;4968978;28;20477;-65
2022/05/25 00:02:59;;;;;;;2.90;0.70;;;;;;;13.40;100.00;98450.63;4973639;28;20034;-65
2022/05/25 00:05:24;;;;;;;2.55;0.73;;;;;;;13.38;100.00;98439.16;4974206;28;20049;-65
2022/05/25 00:07:50;;;;;;;1.65;0.52;;;;;;;13.46;100.00;98443.44;4974450;28;20058;-65
2022/05/25 00:10:15;;;;;;;4.45;0.77;;;;;;;13.40;100.00;98436.22;4975079;28;20388;-65
2022/05/25 00:12:41;;;;;;;3.33;0.38;;;;;;;13.47;100.00;98447.84;4974114;28;20027;-66
2022/05/25 00:15:09;;;;;;;5.47;0.70;;;;;;;13.50;100.00;98448.19;4975995;28;20133;-66
2022/05/25 00:17:34;;;;;;;0.75;0.32;;;;;;;13.43;100.00;98433.03;4976167;28;20022;-65
2022/05/25 00:20:00;;;;;;;2.40;0.50;;;;;;;13.41;100.00;98432.44;4977043;28;20041;-65
2022/05/25 00:22:27;;;;;;;1.38;0.70;;;;;;;13.54;100.00;98448.56;4973321;28;20030;-65
2022/05/25 00:24:57;;;;;;;1.95;0.50;;;;;;;13.56;100.00;98447.25;4972368;28;20395;-65
2022/05/25 00:27:22;;;;;;;4.25;0.60;;;;;;;13.53;100.00;98450.44;4975682;28;20034;-65
2022/05/25 00:29:47;;;;;;;1.35;0.60;;;;;;;13.52;100.00;98456.97;4975906;28;20041;-65
2022/05/25 00:32:13;;;;;;;0.85;0.50;;;;;;;13.64;100.00;98462.41;4974300;28;20110;-66
2022/05/25 00:34:38;;;;;;;1.35;0.50;;;;;;;13.63;100.00;98462.66;4964339;28;20023;-65
2022/05/25 00:37:03;;;;;;;2.78;0.80;;;;;;;13.49;100.00;98454.72;4975702;28;20030;-66
2022/05/25 00:39:29;;;;;;;3.40;0.90;;;;;;;13.40;100.00;98444.38;4974731;28;20022;-66
2022/05/25 00:41:55;;;;;;;2.67;1.00;;;;;;;13.32;100.00;98435.47;4973705;28;20042;-65
2022/05/25 00:44:21;;;;;;;5.18;1.00;;;;;;;13.34;100.00;98446.97;4972639;28;20030;-66
2022/05/25 00:46:47;;;;;;;2.60;1.00;;;;;;;13.28;100.00;98439.75;4975180;28;20031;-67
2022/05/25 00:49:21;;;;;;;2.67;0.90;;;;;;;13.30;100.00;98448.47;4974215;28;20026;-64
2022/05/25 00:52:01;;;;;;;1.35;0.63;;;;;;;13.15;100.00;98438.00;4971177;28;20042;-65
2022/05/25 00:54:30;;;;;;;4.20;1.00;;;;;;;13.12;100.00;98452.00;4972216;28;20597;-65
2022/05/25 00:57:00;;;;;;;1.85;0.68;;;;;;;13.05;100.00;98451.28;4968442;28;20845;-65
2022/05/25 00:59:31;;;;;;;1.10;0.60;;;;;;;13.05;100.00;98461.31;4972482;28;20531;-65
2022/05/25 01:01:57;;;;;;;0.93;0.60;;;;;;;13.04;100.00;98463.19;4964783;28;20030;-65
2022/05/25 01:04:24;;;;;;;1.45;0.52;;;;;;;13.04;100.00;98460.47;4968084;28;20041;-66
2022/05/25 01:07:16;;;;;;;2.90;0.55;;;;;;;13.07;100.00;98459.19;4970946;28;20030;-65
2022/05/25 01:09:44;;;;;;;3.17;0.60;;;;;;;13.04;100.00;98460.47;4972194;28;20030;-65
2022/05/25 01:12:36;;;;;;;8.45;0.88;;;;;;;12.87;100.00;98437.72;4967731;28;20031;-66
2022/05/25 01:15:04;;;;;;;0.82;0.60;;;;;;;12.96;100.00;98462.66;4972520;28;20027;-65
2022/05/25 01:17:32;;;;;;;2.03;0.82;;;;;;;12.88;100.00;98470.06;4970524;28;20384;-65
2022/05/25 01:20:08;;;;;;;2.60;0.70;;;;;;;12.81;100.00;98465.75;4971201;28;20055;-65
2022/05/25 01:23:04;;;;;;;1.52;0.65;;;;;;;12.89;100.00;98469.03;4969016;28;20110;-66
2022/05/25 01:25:52;;;;;;;1.30;0.75;;;;;;;12.85;100.00;98475.94;4964405;28;20493;-66
2022/05/25 01:28:50;;;;;;;0.85;0.47;;;;;;;12.85;100.00;98481.38;4956815;28;20043;-66
2022/05/25 01:31:24;;;;;;;3.70;0.88;;;;;;;12.80;100.00;98478.50;4969504;28;20436;-65
2022/05/25 01:33:55;;;;;;;3.67;0.70;;;;;;;12.75;100.00;98467.50;4972914;28;20606;-65
2022/05/25 01:36:29;;;;;;;3.00;0.40;;;;;;;12.82;100.00;98491.88;4971377;28;20499;-64
2022/05/25 01:39:01;;;;;;;1.33;0.50;;;;;;;12.70;100.00;98476.31;4970481;28;20026;-66
2022/05/25 01:41:35;;;;;;;3.50;0.70;;;;;;;12.79;100.00;98485.00;4972149;28;20046;-65
2022/05/25 01:44:07;;;;;;;6.93;0.77;;;;;;;12.82;100.00;98489.16;4972954;28;20023;-66
2022/05/25 01:46:46;;;;;;;3.45;0.88;;;;;;;12.88;100.00;98489.06;4971858;28;20019;-66
2022/05/25 01:49:19;;;;;;;5.00;0.70;;;;;;;12.82;100.00;98491.88;4971132;28;20433;-65
2022/05/25 01:52:10;;;;;;;5.30;0.90;;;;;;;12.76;100.00;98490.88;4971673;28;20038;-66
2022/05/25 01:54:41;;;;;;;3.65;0.80;;;;;;;12.72;100.00;98479.63;4968658;28;20101;-65
2022/05/25 01:57:11;;;;;;;2.08;0.45;;;;;;;12.76;100.00;98482.75;4969887;28;20496;-66
2022/05/25 01:59:36;;;;;;;2.08;0.63;;;;;;;12.73;100.00;98464.16;4973084;28;20019;-65
2022/05/25 02:04:50;;;;;;;1.45;0.50;;;;;;;12.59;100.00;98497.94;4972360;28;20042;-66
2022/05/25 02:07:27;;;;;;;3.22;0.63;;;;;;;12.39;100.00;98466.41;4969032;28;20074;-65
2022/05/25 02:10:03;;;;;;;1.02;0.68;;;;;;;12.81;100.00;98496.47;4970822;28;20039;-65
2022/05/25 02:12:44;;;;;;;1.83;0.57;;;;;;;12.90;100.00;98484.25;4970713;28;20070;-66
2022/05/25 02:15:43;;;;;;;1.88;0.77;;;;;;;12.72;100.00;98485.06;4973885;28;20536;-65
2022/05/25 02:18:29;;;;;;;1.08;0.80;;;;;;;12.67;100.00;98498.47;4970972;28;20019;-66
2022/05/25 02:21:00;;;;;;;10.18;0.85;;;;;;;12.69;100.00;98498.25;4975891;28;20105;-67
2022/05/25 02:23:31;;;;;;;1.33;0.70;;;;;;;12.64;100.00;98493.50;4968434;28;20389;-65
2022/05/25 02:26:09;;;;;;;2.13;0.88;;;;;;;12.53;100.00;98496.97;4976198;28;20026;-65
2022/05/25 02:28:39;;;;;;;2.58;0.90;;;;;;;12.23;100.00;98480.53;4966801;28;20109;-66
2022/05/25 02:31:10;;;;;;;1.95;0.47;;;;;;;12.38;100.00;98505.44;4975372;28;20381;-64
2022/05/25 02:33:45;;;;;;;2.33;0.90;;;;;;;12.34;100.00;98498.81;4975146;28;20033;-65
2022/05/25 02:36:12;;;;;;;3.78;0.90;;;;;;;12.28;100.00;98497.78;5021827;23;20427;-69
2022/05/25 02:38:39;;;;;;;2.30;0.90;;;;;;;12.21;100.00;98498.94;5014941;28;20026;-69
2022/05/25 02:41:13;;;;;;;3.15;0.70;;;;;;;12.17;100.00;98498.50;5004875;28;20018;-68
2022/05/25 02:43:39;;;;;;;4.13;1.38;;;;;;;12.15;100.00;98497.06;5014494;28;20096;-68
2022/05/25 02:46:06;;;;;;;4.00;1.10;;;;;;;12.02;100.00;98489.88;5011384;28;20588;-68
2022/05/25 02:48:33;;;;;;;4.70;1.15;;;;;;;12.20;100.00;98503.50;5014231;28;20339;-70
2022/05/25 02:50:58;;;;;;;1.38;0.73;;;;;;;12.19;100.00;98509.97;5011334;28;20088;-69
2022/05/25 02:53:23;;;;;;;1.30;0.88;;;;;;;12.36;100.00;98509.41;5011413;28;20455;-69
2022/05/25 02:55:49;;;;;;;1.38;0.90;;;;;;;12.35;100.00;98514.03;5012767;28;20591;-69
2022/05/25 02:58:15;;;;;;;1.27;0.70;;;;;;;12.37;100.00;98511.94;5012259;28;20053;-69
2022/05/25 03:00:40;;;;;;;5.70;1.08;;;;;;;12.28;100.00;98496.97;5011163;28;20080;-69
2022/05/25 03:03:05;;;;;;;1.05;0.70;;;;;;;12.31;100.00;98515.50;5011729;28;20073;-69
2022/05/25 03:05:31;;;;;;;5.63;0.80;;;;;;;12.32;100.00;98522.59;5011673;28;20030;-69
2022/05/25 03:07:57;;;;;;;4.78;0.70;;;;;;;12.21;100.00;98516.03;5028465;28;20018;-69
2022/05/25 03:10:22;;;;;;;2.38;0.80;;;;;;;12.19;100.00;98526.25;5009689;28;20030;-69
2022/05/25 03:12:47;;;;;;;3.45;0.75;;;;;;;12.21;100.00;98523.34;5008968;28;20125;-69
2022/05/25 03:15:13;;;;;;;4.78;1.02;;;;;;;12.20;100.00;98530.63;5011393;28;20091;-69
2022/05/25 03:17:40;;;;;;;2.28;0.95;;;;;;;12.19;100.00;98511.88;5011285;28;20459;-69
2022/05/25 03:20:06;;;;;;;7.90;1.45;;;;;;;12.23;100.00;98534.75;5011308;28;20041;-69
2022/05/25 03:22:34;;;;;;;2.00;1.10;;;;;;;12.24;100.00;98537.28;5012019;28;20033;-69
2022/05/25 03:24:59;;;;;;;2.13;0.90;;;;;;;12.14;100.00;98531.50;5002853;28;20022;-69
2022/05/25 03:27:25;;;;;;;4.32;1.10;;;;;;;11.99;100.00;98520.97;5011376;28;20149;-69
2022/05/25 03:29:50;;;;;;;5.53;0.95;;;;;;;11.87;100.00;98503.75;5009842;28;20022;-69
2022/05/25 03:32:16;;;;;;;13.05;1.20;;;;;;;11.99;100.00;98539.94;5012255;28;20026;-69
2022/05/25 03:34:41;;;;;;;2.42;1.15;;;;;;;11.95;100.00;98543.34;5009309;28;20114;-69
2022/05/25 03:37:07;;;;;;;5.13;1.00;;;;;;;11.96;100.00;98539.56;5010489;28;20034;-72
2022/05/25 03:39:33;;;;;;;2.13;1.20;;;;;;;11.96;100.00;98545.00;5007435;28;20032;-73
2022/05/25 03:42:02;;;;;;;5.45;1.20;;;;;;;11.87;100.00;98530.88;5008837;28;20026;-74
2022/05/25 03:44:28;;;;;;;3.80;1.15;;;;;;;12.06;100.00;98557.00;5003184;28;20034;-75
2022/05/25 03:46:54;;;;;;;2.10;1.40;;;;;;;12.04;100.00;98545.53;5002686;28;20033;-73
2022/05/25 03:49:19;;;;;;;7.30;1.10;;;;;;;12.01;100.00;98556.00;5007736;28;20022;-74
2022/05/25 03:51:45;;;;;;;4.38;0.90;;;;;;;12.18;100.00;98564.44;5009286;28;20060;-74
2022/05/25 03:54:11;;;;;;;5.45;1.38;;;;;;;12.17;100.00;98573.63;5013824;28;20081;-74
2022/05/25 03:56:37;;;;;;;3.50;0.88;;;;;;;11.99;100.00;98558.94;5005813;28;20040;-71
2022/05/25 03:59:02;;;;;;;1.58;0.88;;;;;;;12.04;100.00;98569.13;5006052;28;20033;-70
2022/05/25 04:01:27;;;;;;;2.55;0.93;;;;;;;11.98;100.00;98570.84;5005322;28;20032;-70
2022/05/25 04:03:53;;;;;;;2.50;0.80;;;;;;;12.00;100.00;98576.88;5012094;28;20169;-74
2022/05/25 04:06:18;;;;;;;1.88;0.90;;;;;;;11.96;100.00;98578.34;5009880;28;20018;-74
2022/05/25 04:08:43;;;;;;;1.48;1.00;;;;;;;11.98;100.00;98564.59;5025809;28;20395;-74
2022/05/25 04:11:09;;;;;;;3.03;1.05;;;;;;;12.05;100.00;98585.19;5012491;28;20471;-72
2022/05/25 04:13:34;;;;;;;4.00;1.40;;;;;;;12.02;100.00;98574.75;5010077;28;20029;-70
2022/05/25 04:15:59;;;;;;;2.75;0.75;;;;;;;12.02;100.00;98582.88;5011215;28;20412;-73
2022/05/25 04:18:25;;;;;;;1.25;0.85;;;;;;;11.98;100.00;98587.09;5012607;28;20113;-72
2022/05/25 04:20:50;;;;;;;1.13;0.88;;;;;;;12.02;100.00;98569.31;5011813;28;20101;-72
2022/05/25 04:23:16;;;;;;;3.00;0.85;;;;;;;12.05;100.00;98585.19;5009911;28;20034;-70
2022/05/25 04:25:42;;;;;;;2.72;1.13;;;;;;;11.98;100.00;98592.53;5012598;28;20022;-67
2022/05/25 04:28:07;;;;;;;5.95;0.82;;;;;;;11.99;100.00;98594.16;5009886;28;20034;-67
2022/05/25 04:30:33;;;;;;;1.48;0.90;;;;;;;11.97;100.00;98596.28;5012070;28;20029;-66
2022/05/25 04:32:58;;;;;;;2.92;0.82;;;;;;;12.00;100.00;98601.28;5008458;28;20028;-71
2022/05/25 04:35:26;;;;;;;1.83;0.77;;;;;;;12.17;100.00;98601.56;5012308;28;20080;-72
2022/05/25 04:37:52;;;;;;;3.20;1.08;;;;;;;12.29;100.00;98604.44;5009577;28;20088;-74
2022/05/25 04:40:29;;;;;;;4.45;0.88;;;;;;;12.36;100.00;98616.03;5010129;28;20076;-69
2022/05/25 04:42:56;;;;;;;3.80;1.30;;;;;;;12.49;100.00;98625.97;5011344;28;20040;-69
2022/05/25 04:45:25;;;;;;;3.55;1.10;;;;;;;12.54;100.00;98630.75;5011797;28;20383;-72
2022/05/25 04:47:50;;;;;;;4.00;1.08;;;;;;;12.76;100.00;98632.06;5008453;28;20026;-70
2022/05/25 04:50:18;;;;;;;2.83;0.90;;;;;;;12.74;100.00;98628.72;5002441;28;20041;-70
2022/05/25 04:52:43;;;;;;;6.35;1.13;;;;;;;12.63;100.00;98624.00;5002055;28;20037;-72
2022/05/25 04:57:19;;;;;;;5.05;1.00;;;;;;;12.97;100.00;98640.81;5010208;28;20026;-72
2022/05/25 04:57:55;;;;;;;6.88;1.00;;;;;;;13.10;100.00;98643.44;5006875;28;20112;-70
2022/05/25 05:00:20;;;;;;;8.13;1.05;;;;;;;13.03;100.00;98645.38;5004671;28;20090;-70
2022/05/25 05:02:45;;;;;;;3.88;1.42;;;;;;;13.07;100.00;98655.59;5002197;28;20033;-70
2022/05/25 05:05:14;;;;;;;4.65;0.77;;;;;;;12.91;100.00;98640.66;5010353;28;20583;-71
2022/05/25 05:07:40;;;;;;;2.70;0.93;;;;;;;13.15;100.00;98658.00;5009785;28;20038;-73
2022/05/25 05:10:06;;;;;;;2.55;1.20;;;;;;;13.23;100.00;98653.31;5005463;28;20036;-73
2022/05/25 05:12:31;;;;;;;2.42;1.25;;;;;;;13.36;100.00;98664.94;5010387;28;20026;-67
2022/05/25 05:14:57;;;;;;;5.30;1.38;;;;;;;13.19;100.00;98657.56;5011407;28;20072;-72
2022/05/25 05:17:23;;;;;;;1.95;0.95;;;;;;;13.34;100.00;98674.38;5012151;28;20541;-73
2022/05/25 05:19:48;;;;;;;2.72;1.05;;;;;;;13.40;100.00;98670.75;5009385;28;20038;-66
2022/05/25 05:22:13;;;;;;;2.90;1.02;;;;;;;13.54;100.00;98682.31;5007616;28;20498;-66
2022/05/25 05:24:39;;;;;;;2.65;0.90;;;;;;;13.60;100.00;98675.97;5010812;28;20037;-74
2022/05/25 05:27:06;;;;;;;2.28;0.77;;;;;;;13.81;100.00;98686.41;5011501;28;20040;-72
2022/05/25 05:29:32;;;;;;;1.33;0.93;;;;;;;13.96;100.00;98677.88;5010601;28;20502;-72
2022/05/25 05:31:58;;;;;;;1.67;0.77;;;;;;;13.87;100.00;98667.50;5010612;28;20045;-72
2022/05/25 05:34:27;;;;;;;1.40;1.00;;;;;;;14.01;100.00;98682.59;5003584;28;20033;-71
2022/05/25 05:36:58;;;;;;;9.27;6.18;;;;;;;13.94;100.00;98676.44;5010283;28;20069;-74
2022/05/25 05:39:28;;;;;;;2.42;0.90;;;;;;;14.05;100.00;98683.81;5006759;28;20033;-74
2022/05/25 05:42:03;;;;;;;1.23;0.88;;;;;;;14.27;100.00;98691.47;5009045;28;20030;-69
2022/05/25 05:44:33;;;;;;;1.77;1.10;;;;;;;14.35;100.00;98696.59;5002837;28;20033;-69
2022/05/25 05:47:00;;;;;;;0.75;0.70;;;;;;;14.32;100.00;98697.06;5009692;28;20021;-69
2022/05/25 05:49:25;;;;;;;1.77;0.80;;;;;;;14.38;100.00;98701.56;5011614;28;20100;-68
2022/05/25 05:51:51;;;;;;;2.72;0.90;;;;;;;14.67;100.00;98699.94;5011925;28;20082;-74
2022/05/25 05:54:18;;;;;;;1.25;0.80;;;;;;;14.71;100.00;98703.03;5008451;28;20029;-71
2022/05/25 05:56:44;;;;;;;5.68;0.77;;;;;;;14.97;100.00;98710.78;5008317;28;20080;-71
2022/05/25 05:59:09;;;;;;;3.17;0.80;;;;;;;15.36;100.00;98704.91;5007203;28;20492;-71
2022/05/25 06:01:34;;;;;;;1.63;0.80;;;;;;;15.60;100.00;98697.56;4998216;28;20032;-69
2022/05/25 06:04:00;;;;;;;1.67;0.85;;;;;;;15.95;100.00;98698.34;5006648;28;20634;-72
2022/05/25 06:06:25;;;;;;;3.65;0.90;;;;;;;15.92;100.00;98701.56;5006513;28;20037;-71
2022/05/25 06:08:52;;;;;;;2.05;0.98;;;;;;;16.17;100.00;98706.72;5011730;28;20026;-68
2022/05/25 06:11:19;;;;;;;2.22;0.90;;;;;;;16.15;100.00;98705.31;5006547;28;20499;-73
2022/05/25 06:13:44;;;;;;;1.50;0.70;;;;;;;16.05;100.00;98707.81;5008806;28;20049;-73
2022/05/25 06:21:38;;;;;;;1.55;0.77;;;;;;;16.17;100.00;98717.66;5006462;28;20339;-74
2022/05/25 06:24:04;;;;;;;1.60;0.60;;;;;;;16.44;93.81;98715.16;5012748;28;20030;-73
2022/05/25 06:26:31;;;;;;;1.13;0.77;;;;;;;16.86;89.70;98731.28;5008309;28;20022;-74
2022/05/25 06:28:57;;;;;;;2.10;0.70;;;;;;;17.14;90.55;98735.03;5025876;28;20034;-68
2022/05/25 06:31:23;;;;;;;3.83;0.63;;;;;;;17.48;84.03;98735.03;5010299;28;20113;-68
2022/05/25 06:33:49;;;;;;;4.88;0.70;;;;;;;18.30;75.73;98726.06;5007977;28;20561;-67
2022/05/25 06:36:21;;;;;;;6.47;1.00;;;;;;;18.68;76.48;98737.16;5011069;28;20037;-68
2022/05/25 06:38:47;;;;;;;4.20;0.77;;;;;;;18.88;70.76;98748.38;5010222;28;20034;-68
2022/05/25 06:41:13;;;;;;;2.50;0.70;;;;;;;19.86;65.97;98742.59;5012174;28;20138;-68
2022/05/25 06:43:39;;;;;;;5.07;0.93;;;;;;;19.75;65.97;98731.81;5003746;28;20560;-68
2022/05/25 06:46:06;;;;;;;1.40;0.57;;;;;;;21.01;58.86;98736.19;4999189;28;20447;-73
2022/05/25 06:48:31;;;;;;;1.80;0.75;;;;;;;22.64;51.93;98727.91;5010600;28;20021;-75
2022/05/25 06:50:57;;;;;;;1.58;0.65;;;;;;;23.54;49.68;98729.47;5009310;28;20549;-74
2022/05/25 06:53:22;;;;;;;1.42;0.70;;;;;;;24.70;44.65;98731.22;5009829;28;20052;-73
2022/05/25 06:55:47;;;;;;;2.55;0.60;;;;;;;22.88;48.51;98753.69;5001592;28;20060;-73
2022/05/25 06:58:13;;;;;;;1.15;0.50;;;;;;;21.50;53.28;98740.34;5009553;28;20064;-73
2022/05/25 07:00:38;;;;;;;2.47;0.85;;;;;;;20.37;57.75;98766.75;5009681;28;20424;-67
2022/05/25 07:03:06;;;;;;;1.38;0.45;;;;;;;20.09;59.38;98751.50;5013432;28;20049;-68
2022/05/25 07:05:32;;;;;;;1.52;0.70;;;;;;;18.99;64.75;98773.97;5012475;28;20053;-67
2022/05/25 07:07:57;;;;;;;2.60;0.57;;;;;;;19.29;65.55;98767.94;5014599;28;20056;-71
2022/05/25 07:10:23;;;;;;;4.05;0.70;;;;;;;19.13;64.20;98774.41;5014400;28;20080;-71
2022/05/25 07:12:48;;;;;;;1.67;0.77;;;;;;;18.91;67.30;98777.19;5009763;28;20035;-72
2022/05/25 07:15:13;;;;;;;3.22;0.60;;;;;;;18.28;73.29;98790.38;5008077;28;20310;-71
2022/05/25 07:17:39;;;;;;;4.82;1.30;;;;;;;19.38;66.79;98779.25;5010877;28;20033;-71
2022/05/25 07:20:06;;;;;;;5.20;0.60;;;;;;;22.80;51.11;98773.59;5006301;28;20030;-74
2022/05/25 07:22:32;;;;;;;1.35;0.50;;;;;;;25.31;43.42;98763.56;5009698;28;20014;-71
2022/05/25 07:24:58;;;;;;;4.20;0.80;;;;;;;26.05;41.18;98771.19;5016687;28;20384;-74
2022/05/25 07:27:23;;;;;;;2.28;0.70;;;;;;;27.52;37.82;98757.19;5015230;28;20024;-72
2022/05/25 07:29:48;;;;;;;1.55;0.60;;;;;;;28.36;36.87;98770.25;5014106;28;20025;-69
2022/05/25 07:32:14;;;;;;;1.60;0.50;;;;;;;28.90;35.41;98778.47;5013447;28;20380;-73
2022/05/25 07:34:57;;;;;;;2.40;0.68;;;;;;;29.70;35.28;98767.03;5008256;28;20033;-70
2022/05/25 07:37:23;;;;;;;3.42;0.60;;;;;;;29.42;34.88;98772.94;5008658;28;20022;-73
2022/05/25 07:39:55;;;;;;;1.20;0.50;;;;;;;31.40;33.01;98779.19;5013934;28;20029;-73
2022/05/25 07:42:21;;;;;;;4.32;0.50;;;;;;;31.82;30.85;98779.94;5013668;28;20034;-71
2022/05/25 07:44:58;;;;;;;3.28;0.60;;;;;;;31.27;30.92;98778.28;5000072;28;20033;-69
2022/05/25 07:47:25;;;;;;;3.55;0.68;;;;;;;32.08;30.28;98779.69;5012014;28;20025;-69
2022/05/25 07:49:50;;;;;;;1.85;0.55;;;;;;;31.49;31.08;98770.72;5011666;28;20018;-70
2022/05/25 07:52:16;;;;;;;2.13;0.55;;;;;;;31.06;31.15;98777.47;5010505;28;20028;-70
2022/05/25 07:54:45;;;;;;;2.40;0.60;;;;;;;29.73;32.25;98763.56;5005477;28;20062;-68
2022/05/25 07:57:11;;;;;;;;;;;;;;;29.74;32.33;98770.81;5011644;28;20168;-69
2022/05/25 07:59:36;;;;;;;1.65;0.50;;;;;;;28.12;33.15;98772.63;5012823;28;20000;-68
2022/05/25 08:07:36;;;;;;;2.38;0.60;;;;;;;30.28;31.63;98773.94;5010826;28;20388;-70
2022/05/25 08:10:06;;;;;;;1.90;0.50;;;;;;;30.23;31.71;98778.84;5012553;28;20045;-70
2022/05/25 08:12:34;;;;;;;2.13;0.40;;;;;;;30.95;30.17;98777.88;5011748;28;20060;-70
2022/05/25 08:15:00;;;;;;;1.15;0.50;;;;;;;28.65;32.68;98779.22;5008840;28;20029;-71
2022/05/25 08:17:26;;;;;;;2.10;0.60;;;;;;;26.56;35.97;98772.16;5011910;28;20033;-70
2022/05/25 08:19:51;;;;;;;3.70;0.60;;;;;;;26.12;37.29;98779.09;5013056;28;20026;-69
2022/05/25 08:22:16;;;;;;;1.02;0.40;;;;;;;27.22;37.69;98775.41;5011358;28;20383;-72
2022/05/25 08:24:43;;;;;;;1.83;0.45;;;;;;;28.43;34.91;98767.03;5011618;28;20096;-70
2022/05/25 08:27:08;;;;;;;1.95;0.50;;;;;;;29.01;34.13;98774.22;5004023;28;20160;-70
2022/05/25 08:29:33;;;;;;;2.53;0.40;;;;;;;27.18;36.85;98775.25;5010635;28;20141;-70
2022/05/25 08:31:59;;;;;;;1.88;0.50;;;;;;;25.16;39.37;98783.19;5012733;28;20022;-70
2022/05/25 08:34:26;;;;;;;2.80;0.45;;;;;;;25.18;38.36;98775.41;5012814;28;20018;-69
2022/05/25 08:36:52;;;;;;;2.47;0.50;;;;;;;26.70;35.47;98767.41;5009466;28;20061;-72
2022/05/25 08:39:17;;;;;;;2.55;0.50;;;;;;;26.44;36.40;98765.13;5014150;28;20059;-76
2022/05/25 08:41:44;;;;;;;2.25;0.45;;;;;;;24.80;39.21;98774.53;5012826;28;20116;-75
2022/05/25 08:44:12;;;;;;;2.47;0.50;;;;;;;23.13;42.93;98787.75;5003035;28;20120;-74
2022/05/25 08:46:38;;;;;;;2.22;0.32;;;;;;;22.52;47.04;98784.19;5006188;28;20113;-74
2022/05/25 08:49:11;;;;;;;2.88;0.40;;;;;;;21.86;50.36;98773.34;5012244;28;20412;-75
2022/05/25 08:51:46;;;;;;;0.90;0.50;;;;;;;21.90;52.15;98771.66;5013665;28;20026;-73
2022/05/25 08:54:12;;;;;;;4.43;0.63;;;;;;;21.38;51.51;98789.34;5029484;28;20030;-73
2022/05/25 08:56:49;;;;;;;1.35;0.40;;;;;;;21.04;55.94;98791.72;5029154;28;20028;-74
2022/05/25 08:59:26;;;;;;;1.83;0.50;;;;;;;20.62;55.63;98785.31;5030573;28;20018;-73
2022/05/25 09:02:14;;;;;;;1.85;0.52;;;;;;;20.52;56.96;98788.00;5034851;28;20033;-71
2022/05/25 09:05:00;;;;;;;1.42;0.50;;;;;;;20.41;53.15;98789.88;5028965;28;20037;-74
2022/05/25 09:07:47;;;;;;;1.58;0.60;;;;;;;24.52;43.90;98787.34;5025066;28;20064;-73
2022/05/25 09:10:15;;;;;;;1.23;0.45;;;;;;;27.89;36.87;98772.66;5023596;28;20022;-72
2022/05/25 09:12:48;;;;;;;1.15;0.30;;;;;;;30.86;32.39;98767.91;5002774;28;20172;-73
2022/05/25 09:15:23;;;;;;;2.20;0.40;;;;;;;29.03;31.70;98774.72;5007019;28;20026;-75
2022/05/25 09:17:58;;;;;;;2.05;0.30;;;;;;;26.43;35.91;98771.81;5010424;28;20554;-74
2022/05/25 09:20:30;;;;;;;1.48;0.40;;;;;;;24.13;41.13;98789.16;5003840;28;20044;-73
2022/05/25 09:22:57;;;;;;;2.05;0.35;;;;;;;23.03;44.76;98798.84;5009204;28;20037;-74
2022/05/25 09:25:24;;;;;;;1.95;0.40;;;;;;;22.45;46.27;98783.69;5006612;28;20157;-73
2022/05/25 09:28:20;;;;;;;1.08;0.30;;;;;;;24.77;42.57;98786.22;5006577;28;20029;-73
2022/05/25 09:30:50;;;;;;;1.45;0.40;;;;;;;26.49;37.63;98785.56;5003238;28;20037;-72
2022/05/25 09:33:38;;;;;;;2.35;0.50;;;;;;;26.34;36.74;98783.94;5006915;28;20084;-72
2022/05/25 09:36:44;;;;;;;0.90;0.30;;;;;;;25.51;37.07;98789.28;5007075;28;20025;-73
2022/05/25 09:39:21;;;;;;;1.23;0.35;;;;;;;23.90;36.71;98801.00;4997997;28;20048;-76
2022/05/25 09:41:47;;;;;;;0.50;0.30;;;;;;;27.32;31.88;98794.63;5006711;28;20121;-75
2022/05/25 09:44:18;;;;;;;1.20;0.30;;;;;;;28.57;29.93;98781.66;5006369;28;20484;-73
2022/05/25 09:47:01;;;;;;;0.68;0.25;;;;;;;30.05;27.38;98773.34;5007730;28;20543;-73
2022/05/25 09:49:44;;;;;;;1.45;0.52;;;;;;;29.61;30.31;98788.50;5009602;28;20029;-72
2022/05/25 09:52:22;;;;;;;2.20;0.50;;;;;;;29.13;31.47;98781.94;5021599;28;20030;-67
2022/05/25 09:55:13;;;;;;;1.65;0.30;;;;;;;27.21;33.13;98788.50;5009043;28;20021;-68
2022/05/25 09:57:45;;;;;;;1.30;0.30;;;;;;;25.67;36.32;98798.97;5000600;28;20061;-67
2022/05/25 10:00:39;;;;;;;2.00;0.40;;;;;;;28.45;33.16;98786.19;5006362;28;20055;-66
2022/05/25 10:03:10;;;;;;;3.38;0.60;;;;;;;27.24;32.68;98804.53;5003991;28;20057;-66
2022/05/25 10:05:52;;;;;;;3.05;0.30;;;;;;;25.15;36.90;98798.09;5009583;28;20459;-69
2022/05/25 10:08:32;;;;;;;1.20;0.30;;;;;;;25.52;37.36;98799.25;5002643;28;20602;-70
2022/05/25 10:11:09;;;;;;;1.35;0.40;;;;;;;28.36;33.92;98794.50;5010436;28;20499;-70
2022/05/25 10:13:42;;;;;;;1.85;0.20;;;;;;;29.72;30.82;98789.84;5008768;28;20037;-70
2022/05/25 10:16:23;;;;;;;0.80;0.20;;;;;;;31.13;27.58;98802.91;5004926;28;20026;-70
2022/05/25 10:18:49;;;;;;;1.05;0.20;;;;;;;31.36;28.16;98797.78;5000799;28;20104;-69
2022/05/25 10:21:24;;;;;;;0.80;0.25;;;;;;;31.60;27.76;98791.53;5004779;28;20034;-69
2022/05/25 10:23:50;;;;;;;2.97;0.40;;;;;;;32.21;27.21;98788.91;5008352;28;20032;-70
2022/05/25 10:26:28;;;;;;;0.93;0.20;;;;;;;32.62;27.40;98789.91;5011203;28;20034;-70
2022/05/25 10:29:01;;;;;;;2.10;0.20;;;;;;;31.97;26.68;98794.47;5008989;28;20029;-70
2022/05/25 10:37:08;;;;;;;0.35;0.20;;;;;;;31.27;25.34;98788.66;5009462;28;20037;-71
2022/05/25 10:40:07;;;;;;;2.65;0.40;;;;;;;32.43;26.53;98789.63;5009117;28;20042;-70
2022/05/25 10:42:37;;;;;;;0.65;0.25;;;;;;;33.35;24.85;98783.41;4997717;28;20042;-70
2022/05/25 10:45:12;;;;;;;1.23;0.30;;;;;;;34.00;26.09;98777.59;5007063;28;20164;-71
2022/05/25 10:47:50;;;;;;;1.67;0.20;;;;;;;33.54;24.60;98782.75;5007654;28;20025;-70
2022/05/25 10:50:32;;;;;;;0.93;0.30;;;;;;;33.28;25.19;98773.94;5008418;28;20029;-70
2022/05/25 10:53:08;;;;;;;0.35;0.20;;;;;;;33.86;25.08;98773.63;5008563;28;20068;-70
2022/05/25 10:55:41;;;;;;;1.60;0.30;;;;;;;32.23;24.63;98775.41;4999505;28;20026;-70
2022/05/25 10:58:15;;;;;;;2.42;0.22;;;;;;;29.86;26.46;98775.69;5010533;28;20702;-69
2022/05/25 11:00:56;;;;;;;0.98;0.38;;;;;;;31.23;26.45;98775.34;5009333;28;20156;-70
2022/05/25 11:03:59;;;;;;;1.17;0.22;;;;;;;31.51;26.48;98780.41;5009399;28;20505;-71
2022/05/25 11:07:01;;;;;;;1.55;0.20;;;;;;;32.22;24.53;98778.53;5008261;28;20038;-71
2022/05/25 11:09:48;;;;;;;0.30;0.20;;;;;;;32.07;24.45;98769.66;5005940;28;20112;-71
2022/05/25 11:12:34;;;;;;;0.38;0.20;;;;;;;29.99;24.81;98780.25;5003986;28;20014;-71
2022/05/25 11:15:21;;;;;;;0.98;0.40;;;;;;;30.57;24.52;98767.53;5009606;28;20117;-71
2022/05/25 11:17:55;;;;;;;0.30;0.20;;;;;;;26.41;28.55;98774.09;5003582;28;20596;-69
2022/05/25 11:20:46;;;;;;;1.00;0.28;;;;;;;27.71;26.53;98771.69;5006254;28;20026;-70
2022/05/25 11:23:47;;;;;;;1.10;0.22;;;;;;;27.99;26.94;98768.78;5008782;28;20046;-70
2022/05/25 11:26:48;;;;;;;2.63;0.30;;;;;;;30.32;24.87;98766.53;5009715;28;20041;-70
2022/05/25 11:29:25;;;;;;;2.25;0.20;;;;;;;30.00;26.30;98767.94;5010000;28;20018;-70
2022/05/25 11:32:16;;;;;;;4.55;0.30;;;;;;;30.12;25.01;98770.84;5012851;28;20104;-68
2022/05/25 11:35:17;;;;;;;1.75;0.25;;;;;;;28.73;26.05;98762.53;5002960;28;20119;-68
2022/05/25 11:38:01;;;;;;;0.68;0.20;;;;;;;29.22;25.35;98762.47;5007473;28;20038;-67
2022/05/25 11:40:45;;;;;;;0.80;0.20;;;;;;;30.40;23.14;98761.25;5012121;28;20041;-67
2022/05/25 11:43:38;;;;;;;0.88;0.20;;;;;;;31.77;22.58;98774.56;5006395;28;20053;-72
2022/05/25 11:46:11;;;;;;;1.67;0.22;;;;;;;32.78;22.57;98764.81;5004343;28;20029;-71
2022/05/25 11:49:15;;;;;;;1.98;0.20;;;;;;;32.03;24.22;98771.50;5039714;23;20048;-65
2022/05/25 11:52:22;;;;;;;3.67;0.30;;;;;;;32.56;23.37;98757.69;5028262;28;20169;-67
2022/05/25 11:55:06;;;;;;;0.40;0.30;;;;;;;32.53;23.96;98764.81;5024293;28;20049;-65
2022/05/25 11:57:50;;;;;;;2.28;0.25;;;;;;;32.94;24.28;98771.31;5022442;28;20036;-65
2022/05/25 12:00:26;;;;;;;0.90;0.25;;;;;;;33.53;23.32;98767.06;5015117;28;20030;-65
2022/05/25 12:03:23;;;;;;;2.97;0.40;;;;;;;32.50;22.55;98762.72;5001156;28;21895;-63
2022/05/25 12:06:07;;;;;;;1.10;0.30;;;;;;;30.54;23.69;98761.81;5011582;28;20487;-65
2022/05/25 12:08:53;;;;;;;2.05;0.30;;;;;;;31.47;21.90;98759.91;5006809;28;20152;-65